createdAt,value
2022-12-04T00:02:11.959Z,100587.84
2022-12-04T00:04:38.728Z,100589.81
2022-12-04T00:07:05.466Z,100589.47
2022-12-04T00:09:32.324Z,100588.13
2022-12-04T00:11:58.985Z,100571.81
2022-12-04T00:14:25.700Z,100579.63
2022-12-04T00:16:52.450Z,100578.44
2022-12-04T00:19:19.798Z,100585.03
2022-12-04T00:21:46.498Z,100577.09
2022-12-04T00:24:13.237Z,100578.50
2022-12-04T00:26:39.995Z,100577.78
2022-12-04T00:29:06.714Z,100564.06
2022-12-04T00:31:33.904Z,100577.22
2022-12-04T00:34:02.103Z,100582.41
2022-12-04T00:36:29.862Z,100572.66
2022-12-04T00:38:59.562Z,100569.22
2022-12-04T00:41:28.513Z,100559.78
2022-12-04T00:43:55.194Z,100554.66
2022-12-04T00:46:22.344Z,100547.50
2022-12-04T00:48:49.559Z,100540.34
2022-12-04T00:51:22.091Z,100541.59
2022-12-04T00:53:49.140Z,100548.34
2022-12-04T00:56:19.014Z,100560.78
2022-12-04T00:58:46.257Z,100559.78
2022-12-04T01:01:18.313Z,100554.38
2022-12-04T01:03:45.233Z,100556.88
2022-12-04T01:06:26.930Z,100555.72
2022-12-04T01:08:55.252Z,100553.78
2022-12-04T01:11:24.555Z,100546.72
2022-12-04T01:13:51.575Z,100545.41
2022-12-04T01:16:23.896Z,100548.34
2022-12-04T01:18:51.549Z,100557.44
2022-12-04T01:21:18.867Z,100556.56
2022-12-04T01:23:46.052Z,100560.09
2022-12-04T01:26:13.449Z,100555.75
2022-12-04T01:28:41.022Z,100563.53
2022-12-04T01:31:11.196Z,100557.22
2022-12-04T01:33:38.224Z,100560.06
2022-12-04T01:36:08.434Z,100564.53
2022-12-04T01:38:37.647Z,100567.53
2022-12-04T01:41:05.011Z,100562.91
2022-12-04T01:43:34.136Z,100560.28
2022-12-04T01:46:01.947Z,100546.19
2022-12-04T01:48:32.448Z,100559.78
2022-12-04T01:51:07.177Z,100572.69
2022-12-04T01:53:38.010Z,100572.56
2022-12-04T01:56:05.238Z,100575.06
2022-12-04T01:58:37.888Z,100575.00
2022-12-04T02:01:08.686Z,100573.38
2022-12-04T02:03:37.797Z,100580.00
2022-12-04T02:06:05.589Z,100571.88
2022-12-04T02:08:33.929Z,100565.88
2022-12-04T02:11:18.875Z,100558.28
2022-12-04T02:13:51.276Z,100551.81
2022-12-04T02:17:04.198Z,100557.75
2022-12-04T02:19:39.652Z,100547.78
2022-12-04T02:22:17.888Z,100556.75
2022-12-04T02:25:10.298Z,100565.00
2022-12-04T02:27:39.642Z,100566.00
2022-12-04T02:30:13.112Z,100572.34
2022-12-04T02:32:42.903Z,100575.47
2022-12-04T02:35:15.454Z,100581.78
2022-12-04T02:37:54.768Z,100595.72
2022-12-04T02:40:25.428Z,100609.13
2022-12-04T02:42:58.669Z,100612.06
2022-12-04T02:45:30.101Z,100560.28
2022-12-04T02:48:00.590Z,100533.06
2022-12-04T02:50:30.056Z,100540.81
2022-12-04T02:53:10.642Z,100555.69
2022-12-04T02:56:00.293Z,100556.19
2022-12-04T02:58:33.884Z,100558.97
2022-12-04T03:01:02.991Z,100556.59
2022-12-04T03:03:33.440Z,100566.56
2022-12-04T03:06:05.230Z,100568.44
2022-12-04T03:08:39.616Z,100562.84
2022-12-04T03:11:06.469Z,100554.09
2022-12-04T03:13:36.192Z,100552.78
2022-12-04T03:16:12.492Z,100552.09
2022-12-04T03:18:51.116Z,100555.25
2022-12-04T03:21:21.948Z,100545.34
2022-12-04T03:23:59.356Z,100540.53
2022-12-04T03:26:31.674Z,100546.31
2022-12-04T03:29:11.836Z,100553.75
2022-12-04T03:32:08.300Z,100546.78
2022-12-04T03:35:05.454Z,100547.47
2022-12-04T03:37:43.271Z,100542.84
2022-12-04T03:40:43.892Z,100543.16
2022-12-04T03:43:20.327Z,100549.44
2022-12-04T03:45:59.872Z,100551.06
2022-12-04T03:48:33.150Z,100554.53
2022-12-04T03:51:19.587Z,100553.06
2022-12-04T03:53:54.704Z,100559.81
2022-12-04T03:56:32.526Z,100558.16
2022-12-04T03:59:05.798Z,100570.78
2022-12-04T04:01:39.818Z,100566.97
2022-12-04T04:04:12.695Z,100557.88
2022-12-04T04:06:47.244Z,100551.59
2022-12-04T04:09:19.305Z,100557.53
2022-12-04T04:11:48.716Z,100558.34
2022-12-04T04:14:51.622Z,100554.53
2022-12-04T04:17:42.991Z,100559.34
2022-12-04T04:20:34.771Z,100561.81
2022-12-04T04:23:37.668Z,100567.13
2022-12-04T04:26:05.419Z,100558.69
2022-12-04T04:28:38.210Z,100563.66
2022-12-04T04:31:42.689Z,100556.22
2022-12-04T04:34:36.963Z,100545.63
2022-12-04T04:37:12.495Z,100552.25
2022-12-04T04:39:39.199Z,100553.88
2022-12-04T04:42:26.084Z,100554.50
2022-12-04T04:44:55.544Z,100557.34
2022-12-04T04:47:31.767Z,100560.13
2022-12-04T04:50:01.875Z,100552.81
2022-12-04T04:52:29.905Z,100560.47
2022-12-04T04:54:57.389Z,100562.13
2022-12-04T04:57:37.949Z,100574.75
2022-12-04T05:00:11.958Z,100587.19
2022-12-04T05:02:38.830Z,100588.38
2022-12-04T05:05:05.676Z,100602.78
2022-12-04T05:07:32.476Z,100611.22
2022-12-04T05:09:59.421Z,100600.28
2022-12-04T05:12:26.375Z,100586.06
2022-12-04T05:14:53.083Z,100590.84
2022-12-04T05:17:19.844Z,100604.44
2022-12-04T05:19:56.572Z,100614.34
2022-12-04T05:22:27.833Z,100620.31
2022-12-04T05:24:54.605Z,100605.75
2022-12-04T05:27:22.736Z,100603.59
2022-12-04T05:29:51.771Z,100594.66
2022-12-04T05:32:18.532Z,100594.66
2022-12-04T05:34:48.283Z,100599.13
2022-12-04T05:37:14.988Z,100599.59
2022-12-04T05:39:41.709Z,100595.31
2022-12-04T05:42:08.445Z,100598.09
2022-12-04T05:44:35.524Z,100591.34
2022-12-04T05:47:02.444Z,100602.44
2022-12-04T05:49:30.349Z,100609.91
2022-12-04T05:51:57.122Z,100625.63
2022-12-04T05:54:24.809Z,100626.28
2022-12-04T05:56:51.523Z,100641.34
2022-12-04T05:59:18.478Z,100632.88
2022-12-04T06:01:45.766Z,100634.91
2022-12-04T06:04:12.499Z,100624.13
2022-12-04T06:06:39.570Z,100627.13
2022-12-04T06:09:07.936Z,100614.50
2022-12-04T06:11:38.183Z,100611.56
2022-12-04T06:14:07.740Z,100613.69
2022-12-04T06:16:40.731Z,100610.22
2022-12-04T06:19:11.387Z,100606.41
2022-12-04T06:21:40.367Z,100608.41
2022-12-04T06:24:08.622Z,100605.75
2022-12-04T06:26:35.455Z,100606.91
2022-12-04T06:29:02.185Z,100614.19
2022-12-04T06:31:30.105Z,100607.06
2022-12-04T06:33:58.082Z,100605.59
2022-12-04T06:36:25.565Z,100612.22
2022-12-04T06:38:55.035Z,100601.75
2022-12-04T06:41:23.145Z,100611.69
2022-12-04T06:43:51.791Z,100601.09
2022-12-04T06:46:21.902Z,100613.69
2022-12-04T06:48:49.597Z,100618.31
2022-12-04T06:51:26.516Z,100615.19
2022-12-04T06:53:53.738Z,100624.78
2022-12-04T06:56:23.343Z,100619.81
2022-12-04T06:58:53.320Z,100620.81
2022-12-04T07:01:23.073Z,100621.47
2022-12-04T07:03:51.802Z,100609.19
2022-12-04T07:06:22.555Z,100619.31
2022-12-04T07:08:52.324Z,100619.94
2022-12-04T07:11:20.090Z,100619.47
2022-12-04T07:13:47.271Z,100630.06
2022-12-04T07:16:15.811Z,100631.41
2022-12-04T07:18:42.790Z,100627.25
2022-12-04T07:21:12.275Z,100623.09
2022-12-04T07:23:39.182Z,100623.59
2022-12-04T07:26:07.827Z,100622.06
2022-12-04T07:28:36.012Z,100622.00
2022-12-04T07:31:07.559Z,100624.19
2022-12-04T07:33:34.579Z,100624.06
2022-12-04T07:36:03.057Z,100639.97
2022-12-04T07:38:31.220Z,100632.00
2022-12-04T07:40:58.896Z,100625.75
2022-12-04T07:43:27.228Z,100632.22
2022-12-04T07:45:53.950Z,100632.41
2022-12-04T07:48:20.646Z,100635.22
2022-12-04T07:50:47.477Z,100646.28
2022-12-04T07:53:14.444Z,100641.34
2022-12-04T07:55:41.489Z,100638.34
2022-12-04T07:58:08.199Z,100647.59
2022-12-04T08:00:34.885Z,100645.47
2022-12-04T08:03:01.636Z,100659.72
2022-12-04T08:05:28.356Z,100664.69
2022-12-04T08:07:55.180Z,100669.00
2022-12-04T08:10:21.877Z,100663.38
2022-12-04T08:12:48.599Z,100668.84
2022-12-04T08:15:15.380Z,100671.13
2022-12-04T08:17:42.109Z,100671.66
2022-12-04T08:20:09.052Z,100670.47
2022-12-04T08:22:35.739Z,100667.34
2022-12-04T08:25:02.541Z,100677.09
2022-12-04T08:27:29.222Z,100683.75
2022-12-04T08:29:56.062Z,100692.19
2022-12-04T08:32:23.096Z,100696.16
2022-12-04T08:34:55.677Z,100695.53
2022-12-04T08:37:22.970Z,100705.09
2022-12-04T08:39:49.707Z,100698.31
2022-12-04T08:42:16.425Z,100690.34
2022-12-04T08:44:43.089Z,100700.81
2022-12-04T08:47:09.777Z,100690.56
2022-12-04T08:49:36.429Z,100692.53
2022-12-04T08:52:03.214Z,100703.28
2022-12-04T08:54:35.818Z,100705.59
2022-12-04T08:57:03.722Z,100714.59
2022-12-04T08:59:30.591Z,100719.38
2022-12-04T09:01:57.405Z,100710.44
2022-12-04T09:04:24.134Z,100723.19
2022-12-04T09:06:51.001Z,100726.50
2022-12-04T09:09:17.807Z,100719.22
2022-12-04T09:11:47.647Z,100715.75
2022-12-04T09:14:14.339Z,100721.84
2022-12-04T09:16:41.067Z,100721.84
2022-12-04T09:19:07.796Z,100713.22
2022-12-04T09:21:34.537Z,100706.47
2022-12-04T09:24:01.302Z,100702.78
2022-12-04T09:26:32.723Z,100716.72
2022-12-04T09:29:01.355Z,100714.06
2022-12-04T09:31:28.389Z,100720.53
2022-12-04T09:33:55.864Z,100729.47
2022-12-04T09:36:22.617Z,100737.09
2022-12-04T09:38:51.937Z,100746.91
2022-12-04T09:41:37.650Z,100763.47
2022-12-04T09:44:26.198Z,100776.06
2022-12-04T09:46:54.295Z,100771.25
2022-12-04T09:49:26.755Z,100776.88
2022-12-04T09:51:57.114Z,100776.22
2022-12-04T09:54:28.327Z,100780.16
2022-12-04T09:57:02.175Z,100782.19
2022-12-04T09:59:32.504Z,100783.84
2022-12-04T10:02:03.473Z,100772.75
2022-12-04T10:04:31.009Z,100765.81
2022-12-04T10:07:16.383Z,100767.59
2022-12-04T10:09:59.154Z,100755.31
2022-12-04T10:12:25.886Z,100758.13
2022-12-04T10:14:52.458Z,100757.50
2022-12-04T10:17:39.461Z,100749.53
2022-12-04T10:20:27.907Z,100755.63
2022-12-04T10:23:13.532Z,100750.31
2022-12-04T10:25:42.309Z,100749.16
2022-12-04T10:28:18.268Z,100743.16
2022-12-04T10:30:46.068Z,100751.78
2022-12-04T10:33:15.755Z,100752.94
2022-12-04T10:35:44.775Z,100754.94
2022-12-04T10:38:32.363Z,100753.91
2022-12-04T10:41:15.182Z,100749.31
2022-12-04T10:43:47.441Z,100739.97
2022-12-04T10:46:18.808Z,100741.44
2022-12-04T10:48:47.956Z,100739.00
2022-12-04T10:51:21.389Z,100736.31
2022-12-04T10:53:49.781Z,100733.84
2022-12-04T10:56:23.401Z,100735.81
2022-12-04T10:58:57.383Z,100729.81
2022-12-04T11:01:24.650Z,100728.97
2022-12-04T11:04:16.817Z,100728.63
2022-12-04T11:06:43.572Z,100730.50
2022-12-04T11:09:22.551Z,100734.78
2022-12-04T11:11:50.331Z,100737.28
2022-12-04T11:14:22.373Z,100735.97
2022-12-04T11:16:50.192Z,100728.94
2022-12-04T11:19:31.053Z,100728.09
2022-12-04T11:22:05.291Z,100735.03
2022-12-04T11:24:37.626Z,100734.44
2022-12-04T11:27:05.893Z,100732.81
2022-12-04T11:29:41.569Z,100747.69
2022-12-04T11:32:25.708Z,100745.16
2022-12-04T11:34:56.259Z,100749.03
2022-12-04T11:37:27.738Z,100736.41
2022-12-04T11:39:55.573Z,100726.47
2022-12-04T11:42:31.064Z,100725.16
2022-12-04T11:45:00.116Z,100730.16
2022-12-04T11:47:29.747Z,100724.16
2022-12-04T11:50:14.918Z,100728.09
2022-12-04T11:53:02.705Z,100733.50
2022-12-04T11:55:41.810Z,100734.97
2022-12-04T11:58:26.260Z,100721.69
2022-12-04T12:01:09.520Z,100729.66
2022-12-04T12:04:02.890Z,100727.19
2022-12-04T12:06:29.597Z,100717.66
2022-12-04T12:09:03.142Z,100719.16
2022-12-04T12:11:37.623Z,100723.44
2022-12-04T12:14:26.430Z,100721.97
2022-12-04T12:17:27.141Z,100715.81
2022-12-04T12:20:04.582Z,100720.25
2022-12-04T12:22:55.964Z,100711.56
2022-12-04T12:25:36.448Z,100715.19
2022-12-04T12:28:38.225Z,100712.28
2022-12-04T12:31:10.695Z,100714.97
2022-12-04T12:33:44.936Z,100713.53
2022-12-04T12:36:14.104Z,100708.63
2022-12-04T12:39:02.425Z,100707.06
2022-12-04T12:41:47.587Z,100706.41
2022-12-04T12:44:26.946Z,100707.81
2022-12-04T12:47:00.565Z,100708.53
2022-12-04T12:49:35.151Z,100703.56
2022-12-04T12:52:25.027Z,100709.69
2022-12-04T12:54:58.951Z,100711.16
2022-12-04T12:57:39.744Z,100709.03
2022-12-04T13:00:13.912Z,100704.78
2022-12-04T13:02:52.055Z,100705.47
2022-12-04T13:05:35.150Z,100694.03
2022-12-04T13:08:21.551Z,100689.84
2022-12-04T13:10:53.384Z,100688.78
2022-12-04T13:13:34.493Z,100694.59
2022-12-04T13:16:11.121Z,100694.28
2022-12-04T13:18:47.696Z,100702.00
2022-12-04T13:21:37.452Z,100704.72
2022-12-04T13:24:32.525Z,100710.88
2022-12-04T13:27:12.530Z,100717.59
2022-12-04T13:30:00.886Z,100714.75
2022-12-04T13:32:48.882Z,100713.44
2022-12-04T13:35:52.731Z,100715.94
2022-12-04T13:38:40.529Z,100717.59
2022-12-04T13:41:10.942Z,100723.97
2022-12-04T13:43:44.115Z,100726.78
2022-12-04T13:46:36.891Z,100721.09
2022-12-04T13:49:13.630Z,100728.00
2022-12-04T13:51:41.791Z,100726.00
2022-12-04T13:54:11.412Z,100717.34
2022-12-04T13:56:43.564Z,100709.50
2022-12-04T13:59:28.696Z,100708.06
2022-12-04T14:02:02.249Z,100707.06
2022-12-04T14:04:33.777Z,100706.50
2022-12-04T14:07:03.921Z,100708.38
2022-12-04T14:09:53.200Z,100719.50
2022-12-04T14:12:27.233Z,100725.84
2022-12-04T14:15:00.647Z,100736.53
2022-12-04T14:17:34.307Z,100730.50
2022-12-04T14:20:07.751Z,100729.59
2022-12-04T14:22:37.959Z,100723.06
2022-12-04T14:25:24.179Z,100724.91
2022-12-04T14:27:53.223Z,100724.78
2022-12-04T14:30:35.058Z,100721.78
2022-12-04T14:33:10.120Z,100733.91
2022-12-04T14:35:46.118Z,100728.44
2022-12-04T14:38:20.225Z,100729.06
2022-12-04T14:40:58.572Z,100742.66
2022-12-04T14:43:30.264Z,100738.78
2022-12-04T14:46:09.206Z,100741.44
2022-12-04T14:49:00.742Z,100746.19
2022-12-04T14:51:37.858Z,100751.31
2022-12-04T14:54:19.756Z,100750.50
2022-12-04T14:57:01.072Z,100757.94
2022-12-04T14:59:49.448Z,100753.59
2022-12-04T15:02:26.527Z,100754.84
2022-12-04T15:04:54.089Z,100756.66
2022-12-04T15:07:24.186Z,100755.00
2022-12-04T15:10:14.786Z,100754.41
2022-12-04T15:12:53.668Z,100755.22
2022-12-04T15:15:27.437Z,100754.19
2022-12-04T15:18:11.784Z,100757.66
2022-12-04T15:21:00.175Z,100766.09
2022-12-04T15:23:37.125Z,100769.97
2022-12-04T15:26:25.089Z,100773.16
2022-12-04T15:28:57.535Z,100774.44
2022-12-04T15:31:35.003Z,100787.78
2022-12-04T15:34:07.712Z,100783.44
2022-12-04T15:36:49.927Z,100793.25
2022-12-04T15:39:20.663Z,100785.66
2022-12-04T15:41:47.825Z,100797.91
2022-12-04T15:44:33.807Z,100798.72
2022-12-04T15:47:02.967Z,100805.72
2022-12-04T15:49:32.422Z,100799.91
2022-12-04T15:52:05.423Z,100814.25
2022-12-04T15:54:32.336Z,100817.31
2022-12-04T15:57:06.019Z,100811.13
2022-12-04T15:59:34.902Z,100815.38
2022-12-04T16:02:21.623Z,100815.31
2022-12-04T16:04:58.141Z,100809.75
2022-12-04T16:07:28.813Z,100815.25
2022-12-04T16:10:03.647Z,100825.47
2022-12-04T16:12:32.191Z,100832.41
2022-12-04T16:14:58.889Z,100836.84
2022-12-04T16:17:33.948Z,100838.66
2022-12-04T16:20:04.005Z,100847.22
2022-12-04T16:22:31.538Z,100849.63
2022-12-04T16:24:58.689Z,100856.59
2022-12-04T16:27:25.912Z,100856.59
2022-12-04T16:29:53.505Z,100855.59
2022-12-04T16:32:30.871Z,100865.53
2022-12-04T16:34:58.040Z,100870.84
2022-12-04T16:37:25.074Z,100876.75
2022-12-04T16:39:51.783Z,100880.63
2022-12-04T16:42:22.786Z,100884.66
2022-12-04T16:44:49.912Z,100878.41
2022-12-04T16:47:17.107Z,100880.28
2022-12-04T16:49:45.195Z,100881.47
2022-12-04T16:52:12.390Z,100893.59
2022-12-04T16:54:39.711Z,100896.59
2022-12-04T16:57:09.001Z,100900.63
2022-12-04T16:59:36.243Z,100893.00
2022-12-04T17:02:06.948Z,100906.50
2022-12-04T17:04:33.868Z,100904.22
2022-12-04T17:07:00.609Z,100906.41
2022-12-04T17:09:27.313Z,100906.09
2022-12-04T17:11:54.100Z,100908.78
2022-12-04T17:14:20.912Z,100905.94
2022-12-04T17:16:47.599Z,100920.16
2022-12-04T17:19:14.423Z,100913.38
2022-12-04T17:21:41.770Z,100916.03
2022-12-04T17:24:08.839Z,100921.06
2022-12-04T17:26:35.797Z,100925.22
2022-12-04T17:29:02.763Z,100918.94
2022-12-04T17:31:30.511Z,100922.63
2022-12-04T17:33:57.781Z,100924.81
2022-12-04T17:36:26.222Z,100927.31
2022-12-04T17:38:57.998Z,100940.44
2022-12-04T17:41:25.160Z,100937.47
2022-12-04T17:43:51.850Z,100944.28
2022-12-04T17:46:24.056Z,100944.09
2022-12-04T17:48:50.859Z,100945.84
2022-12-04T17:51:20.766Z,100957.19
2022-12-04T17:53:47.991Z,100963.00
2022-12-04T17:56:17.628Z,100961.34
2022-12-04T17:58:45.298Z,100975.31
2022-12-04T18:01:14.727Z,100979.97
2022-12-04T18:03:43.355Z,100981.00
2022-12-04T18:06:17.655Z,100979.41
2022-12-04T18:08:49.854Z,100973.25
2022-12-04T18:11:20.759Z,100974.44
2022-12-04T18:13:49.313Z,100981.28
2022-12-04T18:16:16.122Z,100988.91
2022-12-04T18:18:46.644Z,100983.59
2022-12-04T18:21:14.296Z,100994.25
2022-12-04T18:23:45.543Z,101004.41
2022-12-04T18:26:18.933Z,101005.16
2022-12-04T18:28:46.638Z,101005.34
2022-12-04T18:31:14.977Z,101009.19
2022-12-04T18:33:42.928Z,101019.50
2022-12-04T18:36:16.255Z,101013.69
2022-12-04T18:38:43.599Z,101018.88
2022-12-04T18:41:12.019Z,101018.38
2022-12-04T18:43:43.734Z,101011.75
2022-12-04T18:46:13.932Z,101030.06
2022-12-04T18:48:43.187Z,101031.31
2022-12-04T18:51:22.983Z,101036.44
2022-12-04T18:53:51.810Z,101042.75
2022-12-04T18:56:19.909Z,101041.44
2022-12-04T18:58:47.027Z,101047.38
2022-12-04T19:01:16.656Z,101048.41
2022-12-04T19:03:43.524Z,101050.22
2022-12-04T19:06:10.678Z,101044.75
2022-12-04T19:08:42.691Z,101045.59
2022-12-04T19:11:13.574Z,101039.63
2022-12-04T19:13:41.020Z,101050.78
2022-12-04T19:16:13.129Z,101049.97
2022-12-04T19:18:40.208Z,101051.97
2022-12-04T19:21:07.341Z,101049.16
2022-12-04T19:23:34.287Z,101050.81
2022-12-04T19:26:01.705Z,101051.81
2022-12-04T19:28:29.010Z,101054.16
2022-12-04T19:30:56.408Z,101062.47
2022-12-04T19:33:24.897Z,101062.59
2022-12-04T19:36:05.646Z,101081.88
2022-12-04T19:38:33.865Z,101077.91
2022-12-04T19:41:12.275Z,101079.41
2022-12-04T19:43:41.224Z,101087.38
2022-12-04T19:46:09.436Z,101099.31
2022-12-04T19:48:37.933Z,101098.31
2022-12-04T19:51:16.611Z,101111.13
2022-12-04T19:53:44.507Z,101115.25
2022-12-04T19:56:14.710Z,101116.25
2022-12-04T19:58:42.491Z,101119.59
2022-12-04T20:01:12.817Z,101113.41
2022-12-04T20:03:39.705Z,101122.38
2022-12-04T20:06:09.185Z,101125.53
2022-12-04T20:08:36.345Z,101141.13
2022-12-04T20:11:08.256Z,101150.28
2022-12-04T20:13:36.506Z,101154.28
2022-12-04T20:16:05.152Z,101157.78
2022-12-04T20:18:32.029Z,101159.28
2022-12-04T20:21:01.078Z,101165.25
2022-12-04T20:23:28.697Z,101178.88
2022-12-04T20:25:55.426Z,101184.03
2022-12-04T20:28:23.504Z,101179.38
2022-12-04T20:30:50.294Z,101182.53
2022-12-04T20:33:17.116Z,101186.88
2022-12-04T20:35:43.776Z,101194.50
2022-12-04T20:38:10.522Z,101192.53
2022-12-04T20:40:37.315Z,101196.00
2022-12-04T20:43:04.089Z,101195.31
2022-12-04T20:45:31.117Z,101200.63
2022-12-04T20:47:57.803Z,101207.00
2022-12-04T20:50:24.930Z,101202.19
2022-12-04T20:52:51.677Z,101202.69
2022-12-04T20:55:18.546Z,101197.56
2022-12-04T20:57:45.435Z,101196.25
2022-12-04T21:00:13.008Z,101199.09
2022-12-04T21:02:39.928Z,101202.72
2022-12-04T21:05:07.627Z,101196.41
2022-12-04T21:07:34.464Z,101196.69
2022-12-04T21:10:01.247Z,101200.94
2022-12-04T21:12:46.302Z,101206.28
2022-12-04T21:15:31.423Z,101218.72
2022-12-04T21:18:00.904Z,101213.19
2022-12-04T21:20:27.611Z,101220.09
2022-12-04T21:22:54.426Z,101220.03
2022-12-04T21:25:21.315Z,101231.47
2022-12-04T21:27:48.067Z,101235.56
2022-12-04T21:30:14.869Z,101238.03
2022-12-04T21:32:41.564Z,101236.34
2022-12-04T21:35:08.711Z,101231.09
2022-12-04T21:37:35.594Z,101240.50
2022-12-04T21:40:03.865Z,101245.72
2022-12-04T21:42:30.613Z,101241.50
2022-12-04T21:45:01.443Z,101245.03
2022-12-04T21:47:29.098Z,101253.78
2022-12-04T21:49:56.569Z,101261.97
2022-12-04T21:52:24.216Z,101260.63
2022-12-04T21:54:54.509Z,101264.44
2022-12-04T21:57:22.720Z,101259.44
2022-12-04T21:59:51.727Z,101268.22
2022-12-04T22:02:19.032Z,101273.31
2022-12-04T22:04:45.806Z,101273.22
2022-12-04T22:07:12.571Z,101278.59
2022-12-04T22:09:40.026Z,101288.63
2022-12-04T22:12:26.275Z,101300.75
2022-12-04T22:14:53.953Z,101304.44
2022-12-04T22:17:20.603Z,101313.75
2022-12-04T22:19:47.314Z,101303.53
2022-12-04T22:22:13.983Z,101295.31
2022-12-04T22:24:41.689Z,101298.38
2022-12-04T22:27:14.849Z,101296.75
2022-12-04T22:29:50.250Z,101299.22
2022-12-04T22:32:18.565Z,101291.25
2022-12-04T22:34:47.915Z,101304.03
2022-12-04T22:37:15.330Z,101306.13
2022-12-04T22:39:42.042Z,101314.50
2022-12-04T22:42:08.908Z,101320.78
2022-12-04T22:44:35.601Z,101321.28
2022-12-04T22:47:02.420Z,101321.34
2022-12-04T22:49:29.103Z,101313.38
2022-12-04T22:51:55.971Z,101320.06
2022-12-04T22:54:22.756Z,101330.00
2022-12-04T22:56:49.499Z,101327.84
2022-12-04T22:59:16.144Z,101331.09
2022-12-04T23:01:42.909Z,101333.31
2022-12-04T23:04:10.026Z,101324.44
2022-12-04T23:06:37.238Z,101325.03
2022-12-04T23:09:11.520Z,101318.06
2022-12-04T23:11:39.247Z,101317.63
2022-12-04T23:14:07.737Z,101318.16
2022-12-04T23:16:36.975Z,101316.41
2022-12-04T23:19:05.495Z,101316.03
2022-12-04T23:21:32.234Z,101313.53
2022-12-04T23:23:58.945Z,101309.06
2022-12-04T23:26:35.343Z,101306.09
2022-12-04T23:29:02.596Z,101312.38
2022-12-04T23:31:30.548Z,101309.44
2022-12-04T23:33:57.414Z,101309.06
2022-12-04T23:36:24.792Z,101301.50
2022-12-04T23:38:51.536Z,101306.88
2022-12-04T23:41:22.515Z,101309.97
2022-12-04T23:43:51.455Z,101301.25
2022-12-04T23:46:20.660Z,101304.72
2022-12-04T23:48:48.285Z,101305.09
2022-12-04T23:51:17.030Z,101297.03
2022-12-04T23:53:44.507Z,101300.03
2022-12-04T23:56:20.278Z,101300.25
2022-12-04T23:58:49.094Z,101300.66
